GAP2165 RPVA-RPLL
Flight info
| Callsign | GAP2165 |
|---|---|
| Flight time | N/A |
| Altitude | 36000 |
| Route | MALAG5R MALAG W9 AKDAP AKDAP3R |
| Aircraft | A321/M-SDE3FGHIRWY/LB1 |
Departure
| Time | 2026-04-23 14:41 |
|---|---|
| Airport | Daniel Z. Romualdez Airport (RPVA) |
Arrival
| Time | N/A |
|---|---|
| Airport | Ninoy Aquino International Airport (RPLL) |
| Time | Latitude | Longitude | Altitude | Speed | Heading |
|---|---|---|---|---|---|
| 2026-04-23 14:22 | 11.22634 | 125.02651 | 19 ft | 0 kts | 317° |
| 2026-04-23 14:36 | 11.22635 | 125.02650 | 19 ft | 0 kts | 324° |
| 2026-04-23 14:36 | 11.22637 | 125.02650 | 19 ft | 0 kts | 356° |
| 2026-04-23 14:37 | 11.22640 | 125.02652 | 19 ft | 1 kts | 47° |
| 2026-04-23 14:37 | 11.22634 | 125.02665 | 19 ft | 3 kts | 133° |
| 2026-04-23 14:37 | 11.22620 | 125.02677 | 19 ft | 3 kts | 141° |
| 2026-04-23 14:37 | 11.22598 | 125.02689 | 19 ft | 4 kts | 152° |
| 2026-04-23 14:38 | 11.22565 | 125.02734 | 19 ft | 9 kts | 111° |
| 2026-04-23 14:38 | 11.22512 | 125.02757 | 19 ft | 9 kts | 181° |
| 2026-04-23 14:38 | 11.22422 | 125.02752 | 19 ft | 19 kts | 183° |
| 2026-04-23 14:38 | 11.22295 | 125.02743 | 20 ft | 18 kts | 183° |
| 2026-04-23 14:39 | 11.22181 | 125.02736 | 20 ft | 14 kts | 183° |
| 2026-04-23 14:39 | 11.22081 | 125.02729 | 20 ft | 14 kts | 184° |
| 2026-04-23 14:39 | 11.21985 | 125.02723 | 21 ft | 9 kts | 184° |
| 2026-04-23 14:39 | 11.21918 | 125.02718 | 21 ft | 10 kts | 184° |
| 2026-04-23 14:40 | 11.21859 | 125.02735 | 21 ft | 9 kts | 158° |
| 2026-04-23 14:40 | 11.21808 | 125.02729 | 21 ft | 5 kts | 250° |
| 2026-04-23 14:40 | 11.21836 | 125.02712 | 21 ft | 6 kts | 2° |
| 2026-04-23 14:40 | 11.21933 | 125.02719 | 21 ft | 32 kts | 4° |
| 2026-04-23 14:41 | 11.22466 | 125.02753 | 19 ft | 119 kts | 5° |
| 2026-04-23 14:41 | 11.23522 | 125.02820 | 257 ft | 165 kts | 5° |
| 2026-04-23 14:41 | 11.24596 | 125.02859 | 1222 ft | 154 kts | 6° |
| 2026-04-23 14:41 | 11.25647 | 125.02923 | 1983 ft | 152 kts | 9° |
| 2026-04-23 14:42 | 11.26725 | 125.03006 | 2314 ft | 161 kts | 9° |
| 2026-04-23 14:42 | 11.27908 | 125.03100 | 2586 ft | 176 kts | 8° |
| 2026-04-23 14:42 | 11.29185 | 125.03194 | 2890 ft | 192 kts | 8° |
| 2026-04-23 14:42 | 11.30574 | 125.03291 | 3203 ft | 208 kts | 7° |
| 2026-04-23 14:43 | 11.31874 | 125.03380 | 3480 ft | 222 kts | 7° |
| 2026-04-23 14:43 | 11.33480 | 125.03206 | 3707 ft | 249 kts | 340° |
| 2026-04-23 14:43 | 11.34939 | 125.02142 | 4063 ft | 269 kts | 317° |
| 2026-04-23 14:43 | 11.36293 | 125.00774 | 4556 ft | 281 kts | 316° |
| 2026-04-23 14:44 | 11.37686 | 124.99360 | 5267 ft | 284 kts | 316° |
| 2026-04-23 14:44 | 11.39088 | 124.97949 | 5981 ft | 286 kts | 316° |
| 2026-04-23 14:44 | 11.40352 | 124.96689 | 6592 ft | 288 kts | 316° |
| 2026-04-23 14:44 | 11.41804 | 124.95249 | 7274 ft | 290 kts | 316° |
| 2026-04-23 14:45 | 11.43256 | 124.93816 | 7943 ft | 293 kts | 316° |
| 2026-04-23 14:45 | 11.44723 | 124.92368 | 8609 ft | 294 kts | 315° |
| 2026-04-23 14:45 | 11.46190 | 124.90919 | 9234 ft | 296 kts | 315° |
| 2026-04-23 14:45 | 11.47672 | 124.89456 | 9853 ft | 298 kts | 315° |
| 2026-04-23 14:46 | 11.49175 | 124.87971 | 10415 ft | 302 kts | 315° |
| 2026-04-23 14:46 | 11.50719 | 124.86446 | 10683 ft | 317 kts | 315° |
| 2026-04-23 14:46 | 11.52333 | 124.84853 | 10936 ft | 331 kts | 315° |
| 2026-04-23 14:46 | 11.54032 | 124.83179 | 11209 ft | 344 kts | 315° |
| 2026-04-23 14:47 | 11.55128 | 124.82098 | 11476 ft | 348 kts | 315° |